Weather History for Litchfield, MN

Change the Weather History Date:

Saturday, October 19, 2013

  Actual Average Record
Temperature  
Mean Temperature 38 °F -  
Max Temperature 44 °F 56 °F 84 °F (2000)
Min Temperature 32 °F 33 °F 14 °F (1972)
Degree Days  
Heating Degree Days 27    
Moisture  
Dew Point 34 °F    
Average Humidity 86    
Maximum Humidity 100    
Minimum Humidity 57    
Precipitation  
Precipitation 0.00 in - - ()
Sea Level Pressure  
Sea Level Pressure 29.76 in    
Wind  
Wind Speed 6 mph (West)    
Max Wind Speed 17 mph    
Max Gust Speed 25 mph    
Visibility 10 miles    
Events Rain    
Averages and records for this station are not official NWS values.
T = Trace of Precipitation, MM = Missing Value Source: NWS Daily Summary

Daily Weather History Graph

Daily Weather History Graph

Search for Another Location

Airport:

Trip Planner

Search our weather history database for the weather conditions in past years. The results will help you decide how hot, cold, wet, or windy it might be!

Date:

Astronomy

Oct. 19, 2013 Rise Set
Actual Time 7:39 AM CDT 6:25 PM CDT
Civil Twilight 7:09 AM CDT 6:55 PM CDT
Nautical Twilight 6:35 AM CDT 7:29 PM CDT
Astronomical Twilight 6:01 AM CDT 8:03 PM CDT
Moon 6:50 PM CDT (10/19) 8:20 AM CDT (10/19)
Length of Visible Light 11h 45m
Length of Day
10h 46m
Waxing Gibbous, 99% of the Moon is Illuminated
Oct 19
Waxing Gibbous
Oct 26
Last Quarter
Nov 3
New
Nov 9
First Quarter
Nov 17
Full

Hourly Weather History & Observations

Time (CDT) Temp. Windchill Dew Point Humidity Pressure Visibility Wind Dir Wind Speed Gust Speed Precip Events Conditions
12:13 AM 37.4 °F 32.8 °F 37.4 °F 100% 29.83 in 10.0 mi WSW 5.8 mph - N/A   Clear
12:33 AM 37.4 °F 33.8 °F 37.4 °F 100% 29.83 in 10.0 mi WSW 4.6 mph - N/A   Clear
12:52 AM 37.4 °F 34.9 °F 37.4 °F 100% 29.82 in 10.0 mi SW 3.5 mph - N/A   Clear
1:13 AM 35.6 °F 32.8 °F 35.6 °F 100% 29.82 in 10.0 mi WSW 3.5 mph - N/A   Clear
1:32 AM 35.6 °F - 35.6 °F 100% 29.81 in 10.0 mi Calm Calm - N/A   Clear
1:53 AM 35.6 °F 32.8 °F 35.6 °F 100% 29.80 in 10.0 mi SW 3.5 mph - N/A   Scattered Clouds
2:13 AM 35.6 °F 32.8 °F 35.6 °F 100% 29.80 in 10.0 mi SW 3.5 mph - N/A   Overcast
2:32 AM 35.6 °F 32.8 °F 35.6 °F 100% 29.79 in 10.0 mi SW 3.5 mph - N/A   Overcast
2:53 AM 35.6 °F 31.7 °F 35.6 °F 100% 29.78 in 10.0 mi SW 4.6 mph - N/A   Scattered Clouds
3:13 AM 35.6 °F 32.8 °F 35.6 °F 100% 29.78 in 10.0 mi WSW 3.5 mph - N/A   Clear
3:33 AM 35.6 °F - 35.6 °F 100% 29.76 in 10.0 mi Calm Calm - N/A   Unknown
3:53 AM 35.6 °F 32.8 °F 35.6 °F 100% 29.75 in 10.0 mi SSW 3.5 mph - N/A   Scattered Clouds
4:12 AM 35.6 °F 32.8 °F 35.6 °F 100% 29.75 in 10.0 mi SSW 3.5 mph - N/A   Mostly Cloudy
4:33 AM 35.6 °F 32.8 °F 35.6 °F 100% 29.74 in 10.0 mi SW 3.5 mph - N/A   Scattered Clouds
4:53 AM 35.6 °F 32.8 °F 35.6 °F 100% 29.74 in 10.0 mi SW 3.5 mph - N/A   Scattered Clouds
5:13 AM 35.6 °F 31.7 °F 35.6 °F 100% 29.73 in 10.0 mi WSW 4.6 mph - N/A   Clear
5:33 AM 35.6 °F 30.7 °F 35.6 °F 100% 29.73 in 10.0 mi WSW 5.8 mph - N/A   Scattered Clouds
5:53 AM 35.6 °F 29.9 °F 35.6 °F 100% 29.73 in 10.0 mi WSW 6.9 mph - N/A   Mostly Cloudy
6:13 AM 37.4 °F 34.9 °F 37.4 °F 100% 29.72 in 10.0 mi SW 3.5 mph - N/A Rain Light Rain
6:32 AM 37.4 °F 33.8 °F 37.4 °F 100% 29.72 in 10.0 mi SW 4.6 mph - N/A   Overcast
6:53 AM 37.4 °F - 37.4 °F 100% 29.71 in 10.0 mi Calm Calm - N/A   Overcast
7:13 AM 37.4 °F 33.8 °F 37.4 °F 100% 29.71 in 10.0 mi WSW 4.6 mph - N/A   Overcast
7:32 AM 37.4 °F 32.8 °F 37.4 °F 100% 29.71 in 10.0 mi WSW 5.8 mph - N/A   Overcast
7:53 AM 37.4 °F 33.8 °F 37.4 °F 100% 29.71 in 10.0 mi WSW 4.6 mph - N/A   Overcast
8:13 AM 37.4 °F 33.8 °F 37.4 °F 100% 29.71 in 10.0 mi WSW 4.6 mph - N/A   Overcast
9:13 AM 39.2 °F 35.9 °F 39.2 °F 100% 29.71 in 10.0 mi WSW 4.6 mph - N/A   Overcast
9:32 AM 39.2 °F 34.2 °F 39.2 °F 100% 29.71 in 10.0 mi WSW 6.9 mph - N/A   Overcast
9:53 AM 41.0 °F 37.1 °F 39.2 °F 93% 29.71 in 10.0 mi West 5.8 mph - N/A   Overcast
10:13 AM 41.0 °F 35.8 °F 39.2 °F 93% 29.71 in 7.0 mi WSW 8.1 mph - N/A   Drizzle
10:33 AM 41.0 °F 34.3 °F 39.2 °F 93% 29.71 in 10.0 mi West 11.5 mph 16.1 mph N/A   Overcast
10:52 AM 42.8 °F 37.5 °F 39.2 °F 87% 29.71 in 10.0 mi West 9.2 mph 17.3 mph N/A   Overcast
11:13 AM 44.6 °F 37.8 °F 39.2 °F 81% 29.70 in 10.0 mi West 15.0 mph 19.6 mph N/A   Overcast
11:33 AM 44.6 °F 38.8 °F 39.2 °F 81% 29.70 in 10.0 mi WNW 11.5 mph 18.4 mph N/A   Overcast
11:52 AM 44.6 °F 38.4 °F 39.2 °F 81% 29.71 in 10.0 mi WNW 12.7 mph 17.3 mph N/A   Mostly Cloudy
12:13 PM 44.6 °F 38.1 °F 37.4 °F 76% 29.71 in 10.0 mi NNW 13.8 mph 20.7 mph N/A   Mostly Cloudy
12:32 PM 44.6 °F 38.1 °F 35.6 °F 71% 29.71 in 10.0 mi WNW 13.8 mph 19.6 mph N/A   Mostly Cloudy
12:53 PM 42.8 °F 35.8 °F 37.4 °F 81% 29.72 in 10.0 mi West 13.8 mph - N/A   Overcast
1:13 PM 44.6 °F 37.8 °F 37.4 °F 76% 29.71 in 10.0 mi WNW 15.0 mph 19.6 mph N/A   Mostly Cloudy
1:32 PM 44.6 °F 37.2 °F 35.6 °F 71% 29.72 in 10.0 mi WNW 17.3 mph 20.7 mph N/A   Mostly Cloudy
1:53 PM 42.8 °F 35.8 °F 35.6 °F 76% 29.72 in 10.0 mi WNW 13.8 mph 18.4 mph N/A   Overcast
2:12 PM 44.6 °F 38.1 °F 33.8 °F 66% 29.72 in 10.0 mi WNW 13.8 mph 18.4 mph N/A   Overcast
2:33 PM 42.8 °F 35.8 °F 32.0 °F 66% 29.73 in 10.0 mi WNW 13.8 mph 20.7 mph N/A   Mostly Cloudy
2:53 PM 44.6 °F 37.4 °F 32.0 °F 61% 29.73 in 10.0 mi WNW 16.1 mph 23.0 mph N/A   Mostly Cloudy
3:12 PM 44.6 °F 37.4 °F 33.8 °F 66% 29.74 in 10.0 mi NW 16.1 mph 20.7 mph N/A   Mostly Cloudy
3:33 PM 44.6 °F 37.8 °F 30.2 °F 57% 29.75 in 10.0 mi WNW 15.0 mph 25.3 mph N/A   Scattered Clouds
3:53 PM 44.6 °F 37.4 °F 30.2 °F 57% 29.75 in 10.0 mi WNW 16.1 mph 21.9 mph N/A   Scattered Clouds
4:12 PM 44.6 °F 38.8 °F 32.0 °F 61% 29.76 in 10.0 mi WNW 11.5 mph 21.9 mph N/A   Scattered Clouds
4:33 PM 42.8 °F 36.6 °F 30.2 °F 61% 29.76 in 10.0 mi NW 11.5 mph 18.4 mph N/A   Scattered Clouds
4:53 PM 42.8 °F 37.0 °F 30.2 °F 61% 29.77 in 10.0 mi WNW 10.4 mph 17.3 mph N/A   Mostly Cloudy
5:12 PM 44.6 °F 38.4 °F 30.2 °F 57% 29.77 in 10.0 mi WNW 12.7 mph 18.4 mph N/A   Overcast
5:33 PM 42.8 °F 37.0 °F 30.2 °F 61% 29.78 in 10.0 mi WNW 10.4 mph - N/A   Overcast
5:53 PM 41.0 °F 35.2 °F 30.2 °F 65% 29.78 in 10.0 mi WNW 9.2 mph - N/A   Scattered Clouds
6:12 PM 41.0 °F 35.8 °F 30.2 °F 65% 29.79 in 10.0 mi WNW 8.1 mph - N/A   Clear
6:33 PM 39.2 °F 34.2 °F 30.2 °F 70% 29.79 in 10.0 mi WNW 6.9 mph - N/A   Clear
6:53 PM 39.2 °F 35.0 °F 30.2 °F 70% 29.80 in 10.0 mi WNW 5.8 mph - N/A   Clear
7:12 PM 39.2 °F 37.0 °F 32.0 °F 75% 29.80 in 10.0 mi West 3.5 mph - N/A   Clear
7:33 PM 37.4 °F 33.8 °F 32.0 °F 81% 29.80 in 10.0 mi West 4.6 mph - N/A   Clear
7:52 PM 37.4 °F 33.8 °F 32.0 °F 81% 29.81 in 10.0 mi West 4.6 mph - N/A   Clear
8:13 PM 35.6 °F 32.8 °F 32.0 °F 87% 29.81 in 10.0 mi WSW 3.5 mph - N/A   Clear
8:33 PM 35.6 °F - 30.2 °F 81% 29.80 in 10.0 mi Calm Calm - N/A   Clear
8:53 PM 35.6 °F - 30.2 °F 81% 29.80 in 10.0 mi Calm Calm - N/A   Clear
9:12 PM 35.6 °F - 32.0 °F 87% 29.81 in 10.0 mi Calm Calm - N/A   Clear
9:33 PM 35.6 °F 32.8 °F 30.2 °F 81% 29.80 in 10.0 mi West 3.5 mph - N/A   Clear
9:53 PM 35.6 °F - 32.0 °F 87% 29.81 in 10.0 mi Calm Calm - N/A   Clear
10:12 PM 35.6 °F - 30.2 °F 81% 29.81 in 10.0 mi Calm Calm - N/A   Clear
10:33 PM 33.8 °F - 30.2 °F 87% 29.80 in 10.0 mi Calm Calm - N/A   Clear
10:53 PM 33.8 °F - 30.2 °F 87% 29.80 in 10.0 mi Calm Calm - N/A   Clear
11:12 PM 33.8 °F 30.8 °F 30.2 °F 87% 29.80 in 10.0 mi West 3.5 mph - N/A   Clear
11:33 PM 32.0 °F - 32.0 °F 100% 29.80 in 10.0 mi Calm Calm - N/A   Clear
11:53 PM 32.0 °F - 32.0 °F 100% 29.79 in 10.0 mi Calm Calm - N/A   Clear